Time;durP1;ratioP1;P1;durP2;ratioP2;P2;SDS_P1;SDS_P2;PMS_P1;PMS_P2;Temp;Humidity;BMP_temperature;BMP_pressure;BME280_temperature;BME280_humidity;BME280_pressure;Samples;Min_cycle;Max_cycle;Signal;HPM_P1;HPM_P2
2023/02/15 05:29:49;;;;;;;14.38;10.93;;;12.10;58.30;;;;;;4927524;24;20135;-74
2023/02/15 05:32:15;;;;;;;14.30;10.40;;;12.20;58.30;;;;;;4863053;29;20092;-73
2023/02/15 05:34:41;;;;;;;20.63;11.50;;;12.40;58.80;;;;;;4860369;29;20064;-74
2023/02/15 05:37:07;;;;;;;20.75;10.63;;;12.50;59.50;;;;;;4862126;29;20053;-72
2023/02/15 05:39:33;;;;;;;17.10;9.40;;;12.60;59.50;;;;;;4863003;29;20057;-71
2023/02/15 05:42:00;;;;;;;25.80;10.63;;;12.80;59.30;;;;;;4862618;29;20050;-71
2023/02/15 05:44:25;;;;;;;15.23;8.93;;;13.00;59.40;;;;;;4862231;29;20064;-72
2023/02/15 05:46:51;;;;;;;15.13;9.45;;;13.10;59.40;;;;;;4863193;29;20128;-70
2023/02/15 05:49:17;;;;;;;23.15;11.98;;;13.30;59.30;;;;;;4873461;29;20053;-70
2023/02/15 05:51:42;;;;;;;25.17;9.88;;;13.00;58.40;;;;;;4881551;29;20052;-71
2023/02/15 05:54:08;;;;;;;18.48;9.20;;;13.20;59.80;;;;;;4881081;29;20078;-72
2023/02/15 05:56:34;;;;;;;20.85;9.05;;;13.40;60.00;;;;;;4880917;29;20077;-73
2023/02/15 05:58:59;;;;;;;18.63;8.40;;;13.50;59.80;;;;;;4881011;29;20112;-75
2023/02/15 06:01:25;;;;;;;16.55;7.75;;;13.60;60.80;;;;;;4879435;29;20056;-75
2023/02/15 06:03:52;;;;;;;18.08;7.55;;;13.80;60.20;;;;;;4881189;29;20057;-76
2023/02/15 06:06:18;;;;;;;15.45;7.85;;;13.90;60.40;;;;;;4882279;29;20432;-75
2023/02/15 06:08:43;;;;;;;18.20;8.07;;;14.00;60.70;;;;;;4884442;29;20045;-76
2023/02/15 06:11:09;;;;;;;16.00;6.85;;;14.00;60.60;;;;;;4878489;29;20136;-76
2023/02/15 06:13:35;;;;;;;14.07;6.78;;;14.20;60.50;;;;;;4884497;29;20452;-77
2023/02/15 06:16:01;;;;;;;15.85;7.78;;;14.30;60.40;;;;;;4884031;29;20048;-73
2023/02/15 06:18:27;;;;;;;17.10;7.15;;;14.40;60.50;;;;;;4884589;29;20053;-75
2023/02/15 06:20:53;;;;;;;18.58;6.93;;;14.40;60.60;;;;;;4884231;29;20048;-76
2023/02/15 06:23:18;;;;;;;14.75;6.35;;;14.50;60.80;;;;;;4885225;29;20060;-73
2023/02/15 06:25:45;;;;;;;20.80;7.55;;;14.60;60.90;;;;;;4884077;29;20052;-77
2023/02/15 06:28:11;;;;;;;16.95;9.57;;;14.70;60.90;;;;;;4885376;29;20360;-76
2023/02/15 06:30:37;;;;;;;18.88;7.47;;;14.60;58.10;;;;;;4884583;29;20079;-78
2023/02/15 06:33:03;;;;;;;22.83;8.52;;;14.50;60.30;;;;;;4867504;29;20049;-78
2023/02/15 06:35:29;;;;;;;21.63;8.80;;;14.60;60.70;;;;;;4880898;29;20052;-74
2023/02/15 06:37:54;;;;;;;25.95;9.50;;;14.70;60.10;;;;;;4867550;29;20085;-75
2023/02/15 06:40:20;;;;;;;24.50;9.63;;;14.80;59.90;;;;;;4852302;29;20109;-76
2023/02/15 06:42:46;;;;;;;17.52;8.65;;;14.90;60.20;;;;;;4882201;29;20045;-77
2023/02/15 06:45:12;;;;;;;24.52;9.23;;;15.00;60.40;;;;;;4867727;29;20049;-75
2023/02/15 06:47:38;;;;;;;22.33;8.93;;;15.10;60.40;;;;;;4867502;29;20049;-70
2023/02/15 06:50:05;;;;;;;30.88;8.80;;;15.00;60.30;;;;;;4884459;29;20053;-75
2023/02/15 06:52:31;;;;;;;28.23;9.27;;;15.10;60.60;;;;;;4868021;29;20475;-74
2023/02/15 06:54:57;;;;;;;24.67;8.95;;;15.10;60.40;;;;;;4884144;29;20045;-75
2023/02/15 06:57:22;;;;;;;23.70;9.40;;;15.20;60.60;;;;;;4884043;29;20075;-78
2023/02/15 06:59:48;;;;;;;26.23;8.20;;;15.20;60.60;;;;;;4883919;29;20068;-76
2023/02/15 07:02:14;;;;;;;26.40;9.68;;;15.20;60.60;;;;;;4883369;29;20088;-75
2023/02/15 07:04:40;;;;;;;23.88;7.47;;;15.20;60.90;;;;;;4884279;29;20060;-75
2023/02/15 07:07:11;;;;;;;17.35;7.70;;;15.20;61.20;;;;;;4882977;29;20049;-74
2023/02/15 07:09:37;;;;;;;15.77;7.32;;;14.90;58.70;;;;;;4867683;29;20049;-74
2023/02/15 07:14:47;;;;;;;26.23;8.45;;;14.90;61.40;;;;;;4883364;29;20053;-74
2023/02/15 07:17:13;;;;;;;21.27;7.65;;;15.00;61.60;;;;;;4881542;29;20049;-73
2023/02/15 07:19:39;;;;;;;24.73;7.90;;;15.00;61.70;;;;;;4883574;29;20067;-76
2023/02/15 07:22:04;;;;;;;21.27;7.88;;;15.10;61.60;;;;;;4883542;29;20057;-74
2023/02/15 07:24:30;;;;;;;22.10;8.07;;;15.10;61.50;;;;;;4883441;29;20049;-77
2023/02/15 07:26:57;;;;;;;16.88;7.30;;;15.20;61.50;;;;;;4883538;29;20147;-74
2023/02/15 07:29:23;;;;;;;22.67;7.38;;;15.20;61.50;;;;;;4883035;29;20076;-75
2023/02/15 07:31:49;;;;;;;18.88;7.55;;;15.20;61.40;;;;;;4882006;29;20056;-72
2023/02/15 07:34:15;;;;;;;17.10;7.25;;;15.20;61.90;;;;;;4882528;29;20071;-73
2023/02/15 07:36:43;;;;;;;19.30;6.68;;;15.30;61.20;;;;;;4880557;29;20060;-77
2023/02/15 07:39:10;;;;;;;23.00;8.32;;;15.30;61.20;;;;;;4864055;29;20352;-75
2023/02/15 07:41:35;;;;;;;27.38;8.43;;;15.30;61.00;;;;;;4877867;29;20053;-75
2023/02/15 07:44:01;;;;;;;16.40;6.75;;;15.30;61.00;;;;;;4866391;29;20055;-74
2023/02/15 07:46:27;;;;;;;18.27;7.22;;;15.40;61.10;;;;;;4882706;29;20088;-73
2023/02/15 07:48:53;;;;;;;18.05;7.90;;;15.40;60.90;;;;;;4882917;29;20045;-74
2023/02/15 07:51:19;;;;;;;22.00;7.38;;;15.40;60.80;;;;;;4883330;29;20365;-74
2023/02/15 07:53:44;;;;;;;22.17;7.57;;;15.40;60.90;;;;;;4882650;29;20436;-73
2023/02/15 07:56:12;;;;;;;21.80;7.10;;;15.50;61.00;;;;;;4874571;29;20044;-75
2023/02/15 07:58:55;;;;;;;16.13;6.70;;;15.50;60.80;;;;;;4872108;29;20093;-74
2023/02/15 08:01:22;;;;;;;16.05;7.57;;;15.40;60.50;;;;;;4876812;29;20049;-73
2023/02/15 08:03:48;;;;;;;17.70;6.55;;;15.40;60.50;;;;;;4872804;29;20048;-72
2023/02/15 08:06:14;;;;;;;18.63;7.45;;;15.40;60.50;;;;;;4857870;29;20119;-73
2023/02/15 08:08:41;;;;;;;21.30;7.43;;;15.40;60.50;;;;;;4878533;29;20412;-73
2023/02/15 08:11:25;;;;;;;19.30;8.07;;;15.40;60.40;;;;;;4873030;29;20474;-72
2023/02/15 08:13:59;;;;;;;21.67;7.30;;;15.40;60.30;;;;;;4858052;29;20053;-74
2023/02/15 08:16:32;;;;;;;19.17;7.22;;;15.40;60.40;;;;;;4872733;29;20064;-74
2023/02/15 08:18:59;;;;;;;17.98;6.45;;;15.40;60.30;;;;;;4873866;29;20059;-72
2023/02/15 08:21:27;;;;;;;14.02;6.85;;;15.30;60.40;;;;;;4876489;29;20045;-74
2023/02/15 08:23:54;;;;;;;17.45;7.20;;;15.40;60.40;;;;;;4871916;29;20075;-72
2023/02/15 08:26:20;;;;;;;16.33;6.88;;;15.40;60.30;;;;;;4873416;29;20045;-72
2023/02/15 08:28:46;;;;;;;11.13;6.47;;;15.40;60.20;;;;;;4875009;29;20038;-72
2023/02/15 08:31:13;;;;;;;13.43;6.90;;;15.40;60.10;;;;;;4857459;29;20060;-73
2023/02/15 08:33:41;;;;;;;18.25;6.90;;;15.50;60.20;;;;;;4871533;29;20126;-72
2023/02/15 08:36:10;;;;;;;16.17;7.18;;;15.50;60.10;;;;;;4872483;29;20045;-72
2023/02/15 08:38:36;;;;;;;12.60;6.97;;;15.50;60.10;;;;;;4873341;29;20044;-73
2023/02/15 08:41:16;;;;;;;14.52;6.15;;;15.50;60.20;;;;;;4874918;29;20087;-73
2023/02/15 08:43:42;;;;;;;15.60;7.22;;;15.40;60.20;;;;;;4859752;29;20065;-74
2023/02/15 08:46:09;;;;;;;15.73;6.97;;;15.40;60.20;;;;;;4855778;29;20045;-74
2023/02/15 08:48:35;;;;;;;11.65;6.00;;;15.40;60.10;;;;;;4875443;29;20488;-73
2023/02/15 08:51:12;;;;;;;15.75;6.82;;;15.50;60.10;;;;;;4857831;29;20118;-72
2023/02/15 08:53:44;;;;;;;13.00;6.35;;;15.50;59.90;;;;;;4854959;29;20041;-74
2023/02/15 08:56:10;;;;;;;15.57;6.20;;;15.60;59.80;;;;;;4871759;29;20051;-75
2023/02/15 08:58:36;;;;;;;13.77;6.25;;;15.60;59.70;;;;;;4873058;29;20044;-73
2023/02/15 09:01:13;;;;;;;10.43;6.05;;;15.60;59.70;;;;;;4876946;29;20045;-74
2023/02/15 09:03:39;;;;;;;10.73;6.00;;;15.60;59.60;;;;;;4881809;29;20364;-79
2023/02/15 09:06:05;;;;;;;15.30;8.73;;;15.60;59.60;;;;;;4881205;29;20056;-79
2023/02/15 09:08:31;;;;;;;16.70;11.70;;;15.70;59.30;;;;;;4881739;29;20045;-74
2023/02/15 09:11:10;;;;;;;21.52;14.23;;;15.60;58.20;;;;;;4881609;29;20120;-75
2023/02/15 09:13:36;;;;;;;20.08;15.05;;;15.60;56.70;;;;;;4881278;29;20053;-75
2023/02/15 09:16:10;;;;;;;25.67;15.68;;;15.60;56.40;;;;;;4881714;29;20381;-76
2023/02/15 09:18:38;;;;;;;22.48;14.70;;;15.60;55.70;;;;;;4881860;29;20056;-76
2023/02/15 09:21:06;;;;;;;26.98;13.50;;;15.60;55.70;;;;;;4881478;29;20544;-75
2023/02/15 09:23:32;;;;;;;24.17;13.68;;;15.60;56.20;;;;;;4881981;29;20325;-76
2023/02/15 09:26:03;;;;;;;21.80;12.27;;;15.70;56.30;;;;;;4880187;29;20052;-78
2023/02/15 09:28:28;;;;;;;22.40;12.60;;;15.80;56.30;;;;;;4865320;29;20108;-75
2023/02/15 09:30:55;;;;;;;27.35;12.80;;;15.80;56.50;;;;;;4881636;29;20069;-77
2023/02/15 09:33:21;;;;;;;24.70;12.00;;;15.80;57.00;;;;;;4879509;29;20045;-75
2023/02/15 09:35:47;;;;;;;23.25;11.70;;;15.90;57.30;;;;;;4879544;29;20099;-75
2023/02/15 09:38:14;;;;;;;25.45;10.18;;;16.00;57.50;;;;;;4865309;29;20475;-75
2023/02/15 09:40:49;;;;;;;28.65;10.45;;;16.00;57.50;;;;;;4863520;29;20076;-76
2023/02/15 09:43:33;;;;;;;25.20;10.13;;;16.10;58.10;;;;;;4881493;29;20037;-77
2023/02/15 09:46:07;;;;;;;24.30;10.40;;;16.10;57.80;;;;;;4865855;29;20103;-78
2023/02/15 09:48:39;;;;;;;23.95;9.60;;;16.10;58.00;;;;;;4880540;29;20060;-76
2023/02/15 09:51:28;;;;;;;18.42;9.45;;;16.10;58.20;;;;;;4864741;29;20131;-79
2023/02/15 09:54:14;;;;;;;18.90;8.80;;;16.20;58.40;;;;;;4880704;29;20053;-78
2023/02/15 09:56:52;;;;;;;21.52;8.85;;;16.20;58.90;;;;;;4881343;29;20057;-78
2023/02/15 09:59:42;;;;;;;27.00;9.52;;;16.20;58.60;;;;;;4864940;29;20060;-77
2023/02/15 10:02:31;;;;;;;33.65;9.32;;;16.10;58.90;;;;;;4881449;29;20055;-77
2023/02/15 10:05:11;;;;;;;26.25;9.88;;;16.10;59.40;;;;;;4849714;29;20068;-76
2023/02/15 10:08:15;;;;;;;30.95;9.88;;;16.10;59.40;;;;;;4880469;29;20045;-77
2023/02/15 10:13:58;;;;;;;30.98;12.10;;;16.20;59.70;;;;;;4861110;29;20460;-75
2023/02/15 10:16:44;;;;;;;29.92;11.90;;;16.30;59.20;;;;;;4845904;29;20183;-77
2023/02/15 10:19:33;;;;;;;29.85;11.07;;;16.30;59.60;;;;;;4827324;29;20121;-77
2023/02/15 10:22:39;;;;;;;24.60;11.55;;;16.50;60.90;;;;;;4862291;29;20042;-79
2023/02/15 10:25:11;;;;;;;27.67;9.63;;;16.40;60.60;;;;;;4862371;29;20469;-77
2023/02/15 10:27:45;;;;;;;31.60;9.88;;;16.40;60.90;;;;;;4862630;29;20057;-76
2023/02/15 10:30:18;;;;;;;36.17;9.82;;;16.40;61.00;;;;;;4874711;29;20112;-79
2023/02/15 10:33:00;;;;;;;37.25;10.55;;;16.40;61.00;;;;;;4880215;29;20464;-77
2023/02/15 10:36:01;;;;;;;32.28;10.63;;;16.50;61.20;;;;;;4862479;29;20045;-76
2023/02/15 10:38:35;;;;;;;32.38;10.38;;;16.60;61.30;;;;;;4826771;29;20111;-76
2023/02/15 10:41:09;;;;;;;24.08;9.20;;;16.60;61.30;;;;;;4846309;29;20156;-79
2023/02/15 10:44:08;;;;;;;31.85;10.32;;;16.60;61.20;;;;;;4851848;29;20068;-79
2023/02/15 10:46:43;;;;;;;22.17;12.52;;;16.60;61.10;;;;;;4845841;29;20058;-71
2023/02/15 10:50:01;;;;;;;26.42;12.98;;;16.60;60.40;;;;;;4880347;29;20349;-75
2023/02/15 10:52:53;;;;;;;29.98;14.50;;;16.60;59.20;;;;;;4844332;29;20081;-76
2023/02/15 10:55:33;;;;;;;24.65;14.05;;;16.50;59.50;;;;;;4883642;29;20044;-77
2023/02/15 10:58:17;;;;;;;24.45;13.15;;;16.50;59.90;;;;;;4883752;29;20467;-77
2023/02/15 11:01:03;;;;;;;30.88;13.45;;;16.50;60.10;;;;;;4883350;29;20064;-77
2023/02/15 11:03:38;;;;;;;28.13;12.27;;;16.50;60.40;;;;;;4883891;29;20056;-74
2023/02/15 11:06:12;;;;;;;22.08;12.10;;;16.60;60.70;;;;;;4867383;29;20060;-75
2023/02/15 11:09:03;;;;;;;31.42;12.73;;;16.60;60.90;;;;;;4866891;29;20139;-76
2023/02/15 11:11:36;;;;;;;27.92;11.20;;;16.60;61.10;;;;;;4877533;29;20369;-74
2023/02/15 11:14:27;;;;;;;32.67;12.18;;;16.60;61.30;;;;;;4883498;29;20496;-77
2023/02/15 11:16:57;;;;;;;40.47;13.82;;;16.60;61.50;;;;;;4867553;29;20113;-74
2023/02/15 11:19:35;;;;;;;36.05;13.25;;;16.60;61.50;;;;;;4883632;29;20441;-76
2023/02/15 11:22:10;;;;;;;34.70;15.93;;;16.60;60.90;;;;;;4883096;29;20108;-78
2023/02/15 11:24:48;;;;;;;28.83;15.13;;;16.70;60.00;;;;;;4883287;29;20422;-74
2023/02/15 11:27:22;;;;;;;38.35;17.80;;;16.60;59.00;;;;;;4867247;29;20056;-76
2023/02/15 11:30:00;;;;;;;32.63;16.25;;;16.60;58.90;;;;;;4883254;29;20057;-77
2023/02/15 11:32:28;;;;;;;33.67;16.40;;;16.60;59.20;;;;;;4866234;29;20064;-78
2023/02/15 11:35:17;;;;;;;29.45;15.10;;;16.60;59.20;;;;;;4866628;29;20141;-77
2023/02/15 11:37:51;;;;;;;31.48;14.57;;;16.70;59.60;;;;;;4883426;29;20469;-78
2023/02/15 11:40:30;;;;;;;29.92;14.43;;;16.70;59.90;;;;;;4883471;29;20388;-80
2023/02/15 11:43:02;;;;;;;30.77;14.40;;;16.70;60.20;;;;;;4866279;29;20069;-78
2023/02/15 11:45:30;;;;;;;40.00;13.65;;;16.70;60.30;;;;;;4859559;29;20041;-81
2023/02/15 11:47:57;;;;;;;35.28;13.80;;;16.70;60.40;;;;;;4866360;29;20049;-78
2023/02/15 11:50:31;;;;;;;35.78;13.60;;;16.70;60.50;;;;;;4883244;29;20041;-77
2023/02/15 11:53:01;;;;;;;28.10;12.88;;;16.80;60.60;;;;;;4874592;29;20052;-76
2023/02/15 11:55:29;;;;;;;32.05;12.45;;;16.80;60.80;;;;;;4866562;29;20049;-79
2023/02/15 11:58:23;;;;;;;22.35;10.98;;;16.70;60.90;;;;;;4867038;29;20045;-79
2023/02/15 12:00:58;;;;;;;20.63;10.90;;;16.70;60.90;;;;;;4882870;29;20045;-76
2023/02/15 12:03:50;;;;;;;24.77;12.25;;;16.80;61.10;;;;;;4882618;29;20049;-81
2023/02/15 12:06:26;;;;;;;30.38;11.95;;;16.70;61.00;;;;;;4882412;29;20424;-78
2023/02/15 12:09:19;;;;;;;28.70;10.73;;;16.70;61.20;;;;;;4879872;29;20059;-77
2023/02/15 12:11:44;;;;;;;26.52;10.57;;;16.70;61.30;;;;;;4882731;29;20111;-76
2023/02/15 12:14:15;;;;;;;30.95;11.23;;;16.70;61.40;;;;;;4865434;29;20124;-78
2023/02/15 12:16:54;;;;;;;27.30;11.32;;;16.60;61.60;;;;;;4877792;29;20488;-79
2023/02/15 12:19:41;;;;;;;22.35;9.45;;;16.60;61.60;;;;;;4854707;29;20088;-76
2023/02/15 12:22:29;;;;;;;21.27;10.10;;;16.60;61.60;;;;;;4863826;29;20060;-77
2023/02/15 12:24:59;;;;;;;22.55;9.48;;;16.60;61.60;;;;;;4850609;29;20076;-77
2023/02/15 12:27:28;;;;;;;18.88;10.43;;;16.60;61.60;;;;;;4866376;29;20065;-77
2023/02/15 12:30:28;;;;;;;25.73;13.32;;;16.50;61.40;;;;;;4881451;29;20074;-75
2023/02/15 12:33:00;;;;;;;20.02;14.35;;;16.50;60.80;;;;;;4882050;29;20510;-77
2023/02/15 12:35:28;;;;;;;27.45;15.02;;;16.50;60.30;;;;;;4865210;29;20051;-77
2023/02/15 12:37:56;;;;;;;23.65;13.55;;;16.50;60.40;;;;;;4882238;29;20044;-76
2023/02/15 12:40:28;;;;;;;32.10;13.23;;;16.50;60.40;;;;;;4881933;29;20475;-76
2023/02/15 12:42:54;;;;;;;20.70;12.15;;;16.50;61.00;;;;;;4882360;29;20121;-77
2023/02/15 12:45:29;;;;;;;22.70;13.27;;;16.50;60.40;;;;;;4881905;29;20057;-79
2023/02/15 12:48:12;;;;;;;22.35;11.93;;;16.50;60.40;;;;;;4881958;29;20053;-77
2023/02/15 12:50:41;;;;;;;19.65;11.65;;;16.50;60.40;;;;;;4865579;29;20128;-78
2023/02/15 12:53:14;;;;;;;17.25;10.93;;;16.50;60.50;;;;;;4848097;29;20439;-76
2023/02/15 12:55:54;;;;;;;16.38;10.48;;;16.50;60.60;;;;;;4864876;29;20398;-78
2023/02/15 12:58:48;;;;;;;21.08;10.23;;;16.50;60.50;;;;;;4864468;29;20383;-79
2023/02/15 13:01:24;;;;;;;19.97;11.10;;;16.60;60.50;;;;;;4851782;29;20053;-77
2023/02/15 13:04:14;;;;;;;15.90;9.95;;;16.60;60.50;;;;;;4880391;29;20049;-78
2023/02/15 13:06:51;;;;;;;16.80;11.73;;;16.60;61.40;;;;;;4849791;29;20453;-76
2023/02/15 13:09:32;;;;;;;18.00;10.43;;;16.60;60.60;;;;;;4880849;29;20375;-75
2023/02/15 13:12:16;;;;;;;15.93;10.18;;;16.50;60.50;;;;;;4881328;29;20445;-76
2023/02/15 13:14:47;;;;;;;15.73;10.43;;;16.60;60.60;;;;;;4881346;29;20045;-75
2023/02/15 13:17:17;;;;;;;18.15;9.68;;;16.50;60.50;;;;;;4865092;29;20116;-74
2023/02/15 13:19:52;;;;;;;17.60;9.20;;;16.60;60.60;;;;;;4881232;29;20472;-75
2023/02/15 13:22:42;;;;;;;18.30;9.50;;;16.60;60.60;;;;;;4881216;29;20432;-75
2023/02/15 13:25:26;;;;;;;14.60;10.23;;;16.60;60.50;;;;;;4881022;29;20044;-77
2023/02/15 13:27:54;;;;;;;;;;;16.50;60.50;;;;;;4866489;29;20059;-75
2023/02/15 13:30:38;;;;;;;15.05;9.15;;;16.50;60.60;;;;;;4878325;29;19931;-78
2023/02/15 13:33:16;;;;;;;22.48;9.93;;;16.50;60.80;;;;;;4840989;29;20048;-76
2023/02/15 13:36:07;;;;;;;18.13;9.63;;;16.50;60.80;;;;;;4877184;29;20460;-77
2023/02/15 13:38:55;;;;;;;19.00;9.60;;;16.50;60.80;;;;;;4835770;29;20057;-77
2023/02/15 13:41:40;;;;;;;20.02;9.20;;;16.50;60.80;;;;;;4853878;29;20052;-75
2023/02/15 13:44:26;;;;;;;20.52;9.82;;;16.50;60.80;;;;;;4875478;29;20048;-75
2023/02/15 13:46:59;;;;;;;15.93;8.63;;;16.50;60.90;;;;;;4870677;29;20055;-77
2023/02/15 13:49:51;;;;;;;15.77;9.32;;;16.50;60.90;;;;;;4870771;29;20119;-75
2023/02/15 13:52:21;;;;;;;11.88;9.18;;;16.50;61.00;;;;;;4871308;29;20049;-74
2023/02/15 13:54:57;;;;;;;17.40;8.68;;;16.50;61.10;;;;;;4853946;29;20057;-76
2023/02/15 13:57:46;;;;;;;13.23;8.52;;;16.50;61.10;;;;;;4871177;29;20052;-77
2023/02/15 14:00:30;;;;;;;12.50;9.27;;;16.50;61.10;;;;;;4873674;29;20128;-76
2023/02/15 14:03:33;;;;;;;19.90;9.40;;;16.50;61.10;;;;;;4874749;29;20071;-74
2023/02/15 14:06:27;;;;;;;21.92;9.75;;;16.50;61.10;;;;;;4874816;29;20080;-76
2023/02/15 14:09:15;;;;;;;20.23;8.75;;;16.50;61.10;;;;;;4873134;29;20045;-74
2023/02/15 14:12:18;;;;;;;18.35;8.82;;;16.50;61.10;;;;;;4865308;29;20124;-75
2023/02/15 14:15:02;;;;;;;11.40;8.65;;;16.50;61.10;;;;;;4858694;29;20094;-77
2023/02/15 14:17:43;;;;;;;16.25;10.20;;;16.50;61.10;;;;;;4856172;29;20140;-75
2023/02/15 14:20:18;;;;;;;20.45;13.70;;;16.50;60.90;;;;;;4873734;29;20051;-77
2023/02/15 14:23:30;;;;;;;24.70;17.17;;;16.50;60.30;;;;;;4873371;29;20087;-76
2023/02/15 14:26:25;;;;;;;28.55;18.52;;;16.50;59.80;;;;;;4868616;29;20046;-76
2023/02/15 14:29:23;;;;;;;28.70;20.23;;;16.40;59.30;;;;;;4862035;29;20522;-77
2023/02/15 14:31:54;;;;;;;30.65;22.25;;;16.40;58.70;;;;;;4866190;29;20060;-78
2023/02/15 14:34:23;;;;;;;33.28;23.20;;;16.30;57.80;;;;;;4884538;29;20045;-76
2023/02/15 14:36:51;;;;;;;31.25;22.50;;;16.20;58.00;;;;;;4883896;29;20052;-76
2023/02/15 14:42:53;;;;;;;35.30;22.45;;;16.20;57.50;;;;;;4884469;29;20053;-74
2023/02/15 14:45:28;;;;;;;38.10;22.95;;;16.10;57.80;;;;;;4878610;29;20129;-73
2023/02/15 14:48:15;;;;;;;39.42;23.30;;;16.00;58.10;;;;;;4851006;29;20140;-71
2023/02/15 14:50:44;;;;;;;32.28;21.50;;;16.10;58.00;;;;;;4884129;29;20120;-74
2023/02/15 14:53:31;;;;;;;38.08;22.00;;;16.10;58.00;;;;;;4883892;29;20059;-73
2023/02/15 14:56:17;;;;;;;36.42;19.70;;;16.10;58.50;;;;;;4867884;29;20049;-72
2023/02/15 14:59:23;;;;;;;38.70;21.63;;;16.10;59.40;;;;;;4883371;29;20041;-73
2023/02/15 15:02:19;;;;;;;45.50;20.83;;;16.20;59.30;;;;;;4882280;29;20115;-74
2023/02/15 15:05:11;;;;;;;39.80;19.00;;;16.20;59.60;;;;;;4883833;29;20065;-76
2023/02/15 15:07:36;;;;;;;42.10;19.88;;;16.20;60.00;;;;;;4883265;29;20552;-74
2023/02/15 15:10:17;;;;;;;36.28;18.52;;;16.30;60.20;;;;;;4883616;29;20124;-77
2023/02/15 15:12:46;;;;;;;39.53;18.02;;;16.40;60.60;;;;;;4866996;29;20060;-74
2023/02/15 15:15:27;;;;;;;39.25;18.90;;;16.40;61.00;;;;;;4883139;29;20101;-75
2023/02/15 15:17:54;;;;;;;34.22;17.52;;;16.40;61.80;;;;;;4883553;29;20052;-74
2023/02/15 15:20:26;;;;;;;37.38;17.35;;;16.50;62.60;;;;;;4883671;29;20239;-73
2023/02/15 15:23:15;;;;;;;36.70;17.95;;;16.50;63.40;;;;;;4882375;29;20057;-75
2023/02/15 15:25:51;;;;;;;29.88;16.50;;;16.60;64.40;;;;;;4877638;29;20371;-75
2023/02/15 15:28:35;;;;;;;35.85;16.55;;;16.60;64.20;;;;;;4882443;29;20049;-74
2023/02/15 15:31:39;;;;;;;25.38;15.25;;;16.60;64.60;;;;;;4873577;29;20057;-73
2023/02/15 15:34:37;;;;;;;37.58;16.00;;;16.60;65.10;;;;;;4860806;29;20147;-75
2023/02/15 15:37:42;;;;;;;33.17;16.08;;;16.60;65.40;;;;;;4893549;29;20056;-79
2023/02/15 15:40:44;;;;;;;31.17;15.50;;;16.50;65.40;;;;;;4775863;30;20055;-75
2023/02/15 15:43:27;;;;;;;33.35;16.52;;;16.50;65.60;;;;;;4864561;29;20053;-74
2023/02/15 15:46:10;;;;;;;31.30;15.35;;;16.40;65.80;;;;;;4848783;29;20096;-75
2023/02/15 15:48:38;;;;;;;28.05;14.43;;;16.40;65.60;;;;;;4865538;29;20056;-74
2023/02/15 15:51:33;;;;;;;29.05;14.50;;;16.40;65.40;;;;;;4864629;29;20056;-76
2023/02/15 15:54:06;;;;;;;26.33;14.65;;;16.30;65.10;;;;;;4876750;29;20124;-78
2023/02/15 15:56:48;;;;;;;30.93;15.17;;;16.30;65.30;;;;;;4881955;29;20041;-77
2023/02/15 15:59:43;;;;;;;26.45;15.63;;;16.30;65.80;;;;;;4866738;29;20048;-76
2023/02/15 16:02:15;;;;;;;43.47;15.75;;;16.30;64.90;;;;;;4866140;29;20128;-76
2023/02/15 16:04:41;;;;;;;31.05;14.35;;;16.30;64.50;;;;;;4882942;29;20401;-77
2023/02/15 16:07:16;;;;;;;33.47;15.73;;;16.30;64.20;;;;;;4882929;29;20041;-77
2023/02/15 16:10:06;;;;;;;28.60;13.82;;;16.40;64.10;;;;;;4883031;29;20052;-75
2023/02/15 16:12:35;;;;;;;33.55;14.43;;;16.40;64.10;;;;;;4882600;29;20148;-76
2023/02/15 16:15:11;;;;;;;31.85;13.90;;;16.40;64.00;;;;;;4882477;29;20048;-75
2023/02/15 16:17:41;;;;;;;35.60;14.73;;;16.40;64.00;;;;;;4882728;29;20379;-73
2023/02/15 16:20:24;;;;;;;37.35;14.05;;;16.50;64.10;;;;;;4882316;29;20113;-73
2023/02/15 16:22:57;;;;;;;40.63;14.98;;;16.50;64.30;;;;;;4882883;29;20055;-74
2023/02/15 16:25:33;;;;;;;36.20;15.00;;;16.50;64.30;;;;;;4866298;29;20052;-73
2023/02/15 16:28:07;;;;;;;34.28;14.25;;;16.60;64.40;;;;;;4882412;29;20114;-78
2023/02/15 16:30:34;;;;;;;;;;;16.60;64.50;;;;;;4882350;29;20065;-75
2023/02/15 16:33:09;;;;;;;37.35;13.98;;;16.60;64.50;;;;;;4882097;29;20407;-77
2023/02/15 16:35:37;;;;;;;39.90;15.45;;;16.70;64.50;;;;;;4882055;29;20048;-75
2023/02/15 16:38:03;;;;;;;30.80;13.65;;;16.60;64.40;;;;;;4881812;29;20119;-75
2023/02/15 16:40:46;;;;;;;33.63;14.48;;;16.60;64.50;;;;;;4882622;29;20154;-76
2023/02/15 16:43:18;;;;;;;30.92;13.25;;;16.60;64.50;;;;;;4865506;29;20056;-75
2023/02/15 16:45:44;;;;;;;28.65;12.68;;;16.60;64.60;;;;;;4881046;29;20532;-74
2023/02/15 16:48:19;;;;;;;35.75;14.70;;;16.60;64.80;;;;;;4881312;29;20053;-76
2023/02/15 16:50:53;;;;;;;30.63;13.43;;;16.60;64.90;;;;;;4864430;29;20104;-71
2023/02/15 16:53:25;;;;;;;31.05;13.63;;;16.60;64.90;;;;;;4881364;29;20056;-72
2023/02/15 16:55:54;;;;;;;29.50;14.00;;;16.60;64.90;;;;;;4881972;29;20413;-77
2023/02/15 16:58:28;;;;;;;30.42;13.98;;;16.60;64.90;;;;;;4881838;29;20077;-74
2023/02/15 17:00:59;;;;;;;34.13;15.48;;;16.60;64.80;;;;;;4881770;29;20488;-73
2023/02/15 17:03:26;;;;;;;36.15;16.35;;;16.50;64.30;;;;;;4850224;29;20057;-75
2023/02/15 17:05:58;;;;;;;29.13;14.20;;;16.50;64.30;;;;;;4881801;29;20140;-74
2023/02/15 17:08:32;;;;;;;32.28;13.77;;;16.50;64.20;;;;;;4881781;29;20049;-74
2023/02/15 17:11:19;;;;;;;35.50;13.73;;;16.50;64.50;;;;;;4881619;29;20511;-76
2023/02/15 18:12:43;;;;;;;37.97;22.15;;;15.80;62.40;;;;;;4884586;29;20376;-79
2023/02/15 18:15:12;;;;;;;36.17;22.13;;;15.80;62.50;;;;;;4862784;29;20059;-77
2023/02/15 18:17:44;;;;;;;35.42;22.80;;;15.80;62.80;;;;;;4868608;29;20053;-75
2023/02/15 18:20:27;;;;;;;33.42;21.60;;;15.80;63.10;;;;;;4884799;29;20053;-77
2023/02/15 18:22:53;;;;;;;34.35;21.67;;;15.80;64.20;;;;;;4869090;29;20045;-76
2023/02/15 18:25:22;;;;;;;33.50;22.25;;;15.70;63.60;;;;;;4884185;29;20104;-77
2023/02/15 18:27:48;;;;;;;37.80;21.70;;;15.70;63.60;;;;;;4854996;29;20368;-76
2023/02/15 18:30:16;;;;;;;29.58;20.73;;;15.70;63.60;;;;;;4867815;29;20049;-76
2023/02/15 18:32:44;;;;;;;31.40;21.90;;;15.70;64.10;;;;;;4885017;29;20068;-73
2023/02/15 18:35:19;;;;;;;33.85;22.27;;;15.70;64.20;;;;;;4866943;29;20049;-73
2023/02/15 18:37:46;;;;;;;29.92;19.48;;;15.70;65.20;;;;;;4884444;29;20049;-76
2023/02/15 18:40:20;;;;;;;31.10;20.83;;;15.70;65.30;;;;;;4885210;29;20092;-78
2023/02/15 18:42:47;;;;;;;30.73;20.17;;;15.70;65.20;;;;;;4867361;29;20041;-77
2023/02/15 18:45:23;;;;;;;27.70;20.00;;;15.70;65.00;;;;;;4884520;29;20121;-74
2023/02/15 18:47:49;;;;;;;29.83;20.35;;;15.70;64.80;;;;;;4884371;29;20540;-76
2023/02/15 18:50:17;;;;;;;26.20;19.42;;;15.70;64.70;;;;;;4884167;29;20141;-75
2023/02/15 18:52:45;;;;;;;37.63;19.35;;;15.70;65.00;;;;;;4884115;29;20049;-74
2023/02/15 18:55:20;;;;;;;41.60;20.45;;;15.70;64.70;;;;;;4868391;29;20412;-75
2023/02/15 18:57:47;;;;;;;30.58;18.60;;;15.60;64.90;;;;;;4867746;29;20052;-74
2023/02/15 19:00:28;;;;;;;30.60;19.33;;;15.60;64.80;;;;;;4884354;29;20406;-75
2023/02/15 19:02:55;;;;;;;28.95;19.05;;;15.60;65.00;;;;;;4867211;29;20128;-78
2023/02/15 19:05:22;;;;;;;34.55;19.70;;;15.60;65.00;;;;;;4882937;29;20127;-75
2023/02/15 19:07:49;;;;;;;25.75;18.60;;;15.50;65.10;;;;;;4884468;29;20071;-78
2023/02/15 19:10:17;;;;;;;31.80;20.05;;;15.50;65.10;;;;;;4866902;29;20073;-75
2023/02/15 19:12:44;;;;;;;26.15;18.40;;;15.50;65.10;;;;;;4883323;29;20138;-77
2023/02/15 19:15:18;;;;;;;26.45;18.33;;;15.50;65.20;;;;;;4883583;29;20057;-76
2023/02/15 19:17:44;;;;;;;27.55;18.95;;;15.40;65.80;;;;;;4868248;29;20353;-76
2023/02/15 19:20:24;;;;;;;30.00;18.73;;;15.40;65.20;;;;;;4864185;29;20049;-77
2023/02/15 19:22:52;;;;;;;28.98;19.02;;;15.40;65.80;;;;;;4865329;29;20060;-78
2023/02/15 19:25:24;;;;;;;29.90;20.27;;;15.40;65.30;;;;;;4865199;29;20070;-77
2023/02/15 19:27:51;;;;;;;25.77;18.42;;;15.40;65.30;;;;;;4865439;29;20124;-77
2023/02/15 19:30:28;;;;;;;23.58;18.02;;;15.40;65.40;;;;;;4867247;29;20076;-77
2023/02/15 19:32:55;;;;;;;27.73;18.48;;;15.30;65.40;;;;;;4866946;29;20045;-76
2023/02/15 19:35:24;;;;;;;26.58;18.27;;;15.30;65.40;;;;;;4867360;29;20069;-76
2023/02/15 19:37:56;;;;;;;27.52;17.55;;;15.30;65.40;;;;;;4867623;29;20412;-77
2023/02/15 19:40:26;;;;;;;25.50;19.05;;;15.30;65.50;;;;;;4863543;29;20546;-77
2023/02/15 19:42:52;;;;;;;26.23;18.98;;;15.30;65.50;;;;;;4865130;29;20050;-75
2023/02/15 19:45:21;;;;;;;24.83;18.67;;;15.30;65.50;;;;;;4865034;29;20132;-77